createdAt,value
2023-05-22T05:07:25.743Z,15.90
2023-05-22T05:09:55.451Z,16.00
2023-05-22T05:12:24.683Z,16.20
2023-05-22T05:14:53.885Z,16.30
2023-05-22T05:19:44.581Z,16.50
2023-05-22T05:22:14.043Z,16.30
2023-05-22T05:24:43.461Z,16.30
2023-05-22T05:27:12.873Z,16.20
2023-05-22T05:30:22.810Z,16.20
2023-05-22T05:33:04.618Z,16.20
2023-05-22T05:36:01.934Z,16.20
2023-05-22T05:38:31.658Z,16.30
2023-05-22T05:41:00.902Z,16.30
2023-05-22T05:43:30.339Z,16.30
2023-05-22T05:46:15.422Z,16.40
2023-05-22T05:48:56.866Z,16.50
2023-05-22T05:52:15.804Z,16.70
2023-05-22T05:54:48.059Z,16.80
2023-05-22T05:57:22.112Z,16.80
2023-05-22T05:59:53.330Z,16.90
2023-05-22T06:02:43.896Z,17.00
2023-05-22T06:06:39.492Z,17.10
2023-05-22T06:09:26.876Z,17.10
2023-05-22T06:12:23.080Z,17.10
2023-05-22T06:15:02.874Z,17.10
2023-05-22T06:17:33.674Z,17.20
2023-05-22T06:20:03.181Z,17.30
2023-05-22T06:26:56.575Z,17.50
2023-05-22T06:29:47.658Z,17.70
2023-05-22T06:32:30.877Z,17.70
2023-05-22T06:35:14.787Z,17.80
2023-05-22T06:38:06.415Z,17.90
2023-05-22T06:40:54.221Z,18.00
2023-05-22T06:44:24.475Z,18.10
2023-05-22T06:47:10.334Z,18.40
2023-05-22T06:49:52.312Z,18.50
2023-05-22T06:52:43.314Z,18.70
2023-05-22T06:55:24.040Z,18.80
2023-05-22T06:58:42.664Z,18.80
2023-05-22T07:01:16.408Z,18.90
2023-05-22T07:04:00.674Z,19.00
2023-05-22T07:06:44.126Z,19.40
2023-05-22T07:09:14.306Z,19.60
2023-05-22T07:11:44.261Z,19.80
2023-05-22T07:14:16.654Z,19.90
2023-05-22T07:17:42.243Z,20.20
2023-05-22T07:20:16.228Z,20.40
2023-05-22T07:22:52.742Z,20.50
2023-05-22T07:25:22.087Z,20.70
2023-05-22T07:27:51.203Z,20.80
2023-05-22T07:30:21.949Z,20.90
2023-05-22T07:33:01.168Z,21.00
2023-05-22T07:35:32.264Z,21.10
2023-05-22T07:38:01.648Z,21.20
2023-05-22T07:40:30.817Z,21.20
2023-05-22T07:42:59.932Z,21.70
2023-05-22T07:45:29.600Z,22.10
2023-05-22T07:48:02.331Z,22.50
2023-05-22T07:55:00.542Z,23.70
2023-05-22T07:57:45.492Z,24.20
2023-05-22T08:00:35.176Z,24.50
2023-05-22T08:03:22.261Z,24.40
2023-05-22T08:06:13.959Z,24.50
2023-05-22T08:09:02.413Z,25.00
2023-05-22T08:11:47.820Z,25.50
2023-05-22T08:14:55.413Z,25.80
2023-05-22T08:17:26.709Z,26.00
2023-05-22T08:19:56.306Z,25.50
2023-05-22T08:34:55.519Z,25.90
2023-05-22T08:37:26.326Z,25.50
2023-05-22T08:39:55.462Z,25.50
2023-05-22T08:42:24.782Z,25.60
2023-05-22T08:44:55.737Z,25.10
2023-05-22T08:47:28.838Z,24.80
2023-05-22T08:49:59.495Z,24.90
2023-05-22T08:52:35.577Z,25.10
2023-05-22T08:55:08.115Z,25.50
2023-05-22T16:21:08.380Z,25.20
2023-05-22T16:23:38.060Z,24.80
2023-05-22T16:26:07.792Z,24.60
2023-05-22T16:28:38.731Z,24.30
2023-05-22T16:31:08.133Z,24.10
2023-05-22T16:33:37.899Z,23.90
2023-05-22T16:36:07.888Z,23.70
2023-05-22T16:38:37.101Z,23.60
2023-05-22T16:41:08.765Z,23.40
2023-05-22T16:43:39.651Z,23.30
2023-05-22T16:46:09.032Z,23.20
2023-05-22T16:48:38.597Z,23.20
2023-05-22T16:51:07.934Z,23.10
2023-05-22T16:53:39.057Z,23.20
2023-05-22T16:56:09.107Z,23.10
2023-05-22T16:58:40.218Z,23.00
2023-05-22T17:01:10.257Z,22.90
2023-05-22T17:03:39.964Z,22.70
2023-05-22T17:06:10.290Z,22.70
2023-05-22T17:08:39.931Z,22.70
2023-05-22T17:11:09.657Z,22.70
2023-05-22T17:13:40.623Z,22.70
2023-05-22T17:16:10.427Z,22.70
2023-05-22T17:18:41.602Z,22.80
2023-05-22T17:21:11.337Z,22.80
2023-05-22T17:23:40.656Z,22.70
2023-05-22T17:26:10.174Z,22.80
2023-05-22T17:28:41.093Z,22.90
2023-05-22T17:31:11.111Z,22.80
2023-05-22T17:33:40.577Z,22.80
2023-05-22T17:36:10.086Z,22.80
2023-05-22T17:38:39.649Z,22.60
2023-05-22T17:41:09.481Z,22.50
2023-05-22T17:43:40.357Z,22.40
2023-05-22T17:46:09.870Z,22.30
2023-05-22T17:48:41.350Z,22.20
2023-05-22T17:51:10.999Z,22.10
2023-05-22T17:53:40.446Z,22.10
2023-05-22T17:56:09.696Z,22.00
2023-05-22T17:58:41.021Z,21.90
2023-05-22T18:01:10.330Z,22.10
2023-05-22T18:03:39.756Z,22.00
2023-05-22T18:06:09.576Z,21.90
2023-05-22T18:08:40.444Z,21.80
2023-05-22T18:11:09.788Z,22.00
2023-05-22T18:13:40.434Z,21.70
2023-05-22T18:16:10.219Z,21.60
2023-05-22T18:18:39.326Z,21.40
2023-05-22T18:21:08.641Z,21.30
2023-05-22T18:23:37.747Z,21.20
2023-05-22T18:26:07.226Z,21.00
2023-05-22T18:28:36.505Z,21.00
2023-05-22T18:31:08.351Z,21.20
2023-05-22T18:33:39.706Z,21.40
2023-05-22T18:36:08.984Z,21.40
2023-05-22T18:38:37.870Z,21.40
2023-05-22T18:41:09.614Z,21.40
2023-05-22T18:43:38.699Z,21.20
2023-05-22T18:46:10.064Z,21.00
2023-05-22T18:48:39.334Z,20.90
2023-05-22T18:51:09.232Z,20.80
2023-05-22T18:53:39.438Z,20.60
2023-05-22T18:56:09.478Z,20.60
2023-05-22T18:58:41.846Z,20.50
2023-05-22T19:01:13.428Z,20.20
2023-05-22T19:03:44.233Z,20.00
2023-05-22T19:06:14.876Z,19.80
2023-05-22T19:08:45.153Z,19.80
2023-05-22T19:11:16.913Z,19.70
2023-05-22T19:13:47.316Z,19.60
2023-05-22T19:16:19.513Z,19.40
2023-05-22T19:18:50.639Z,19.40
2023-05-22T19:21:20.917Z,19.40
2023-05-22T19:23:50.300Z,19.30
2023-05-22T19:26:20.057Z,19.00
2023-05-22T19:28:49.792Z,18.80
2023-05-22T19:31:20.818Z,18.80
2023-05-22T19:33:50.508Z,18.80
2023-05-22T19:36:20.179Z,18.70
2023-05-22T19:38:50.715Z,18.70
2023-05-22T19:41:21.959Z,18.60
2023-05-22T19:43:51.868Z,18.50
2023-05-22T19:46:23.050Z,18.50
2023-05-22T19:48:52.686Z,18.50
2023-05-22T19:51:22.217Z,18.40
2023-05-22T19:53:52.104Z,18.40
2023-05-22T19:56:21.938Z,18.30
2023-05-22T19:58:51.715Z,18.30
2023-05-22T20:01:22.932Z,18.30
2023-05-22T20:03:52.525Z,18.30
2023-05-22T20:06:22.208Z,18.20
2023-05-22T20:08:51.833Z,18.10
2023-05-22T20:11:22.053Z,18.10
2023-05-22T20:13:51.412Z,17.90
2023-05-22T20:16:22.219Z,17.80
2023-05-22T20:18:52.631Z,17.70
2023-05-22T20:21:22.384Z,17.60
2023-05-22T20:23:51.898Z,17.60
2023-05-22T20:26:21.941Z,17.50
2023-05-22T20:28:51.177Z,17.40
2023-05-22T20:31:21.963Z,17.20
2023-05-22T20:33:51.126Z,17.20
2023-05-22T20:36:20.396Z,17.20
2023-05-22T20:38:49.553Z,17.10
2023-05-22T20:41:19.650Z,17.00
2023-05-22T20:43:49.156Z,16.90
2023-05-22T20:46:23.246Z,16.80
2023-05-22T20:48:53.419Z,16.70
2023-05-22T20:51:26.317Z,16.70
2023-05-22T20:53:56.500Z,16.60
2023-05-22T20:56:26.633Z,16.50
2023-05-22T20:58:56.521Z,16.50
2023-05-22T21:01:27.211Z,16.60
2023-05-22T21:03:57.668Z,16.60
2023-05-22T21:06:26.809Z,16.50
2023-05-22T21:09:00.189Z,16.50
2023-05-22T21:11:30.064Z,16.30
2023-05-22T21:14:00.188Z,16.40
2023-05-22T21:16:32.517Z,16.30
2023-05-22T21:19:02.551Z,16.30
2023-05-22T21:21:32.910Z,16.20
2023-05-22T21:24:02.629Z,16.10
2023-05-22T21:26:35.323Z,16.10
2023-05-22T21:29:07.202Z,16.20
2023-05-22T21:31:42.176Z,16.30
2023-05-22T21:34:11.789Z,16.20
2023-05-22T21:36:43.968Z,16.00
2023-05-22T21:39:14.237Z,16.00
2023-05-22T21:41:45.037Z,16.00
2023-05-22T21:44:15.758Z,16.10
2023-05-22T21:46:47.158Z,16.00
2023-05-22T21:49:17.407Z,15.90
2023-05-22T21:51:46.697Z,16.00
2023-05-22T21:54:16.123Z,15.90
2023-05-22T21:56:45.746Z,15.80
2023-05-22T21:59:15.113Z,15.80
2023-05-22T22:01:45.932Z,15.80
2023-05-22T22:04:15.401Z,15.80
2023-05-22T22:06:44.817Z,15.80
2023-05-22T22:09:14.001Z,15.80
2023-05-22T22:11:43.227Z,15.80
2023-05-22T22:14:12.492Z,15.80
2023-05-22T22:16:41.763Z,15.80
2023-05-22T22:19:13.253Z,15.90
2023-05-22T22:21:42.472Z,15.90
2023-05-22T22:24:12.069Z,15.90
2023-05-22T22:26:41.347Z,15.90
2023-05-22T22:29:10.823Z,15.90
2023-05-22T22:31:40.442Z,15.90
2023-05-22T22:34:09.822Z,15.80
2023-05-22T22:36:40.927Z,15.80
2023-05-22T22:39:10.734Z,15.80
2023-05-22T22:41:40.250Z,15.70
2023-05-22T22:44:10.976Z,15.60
2023-05-22T22:46:40.981Z,15.50
2023-05-22T22:49:11.382Z,15.50
2023-05-22T22:51:43.030Z,15.40
2023-05-22T22:54:15.651Z,15.40
2023-05-22T22:56:45.649Z,15.30
2023-05-22T22:59:15.673Z,15.40
2023-05-22T23:01:45.526Z,15.40
2023-05-22T23:04:15.319Z,15.30
2023-05-22T23:06:46.516Z,15.20
2023-05-22T23:09:16.365Z,15.20
2023-05-22T23:11:45.986Z,15.20
2023-05-22T23:14:15.320Z,15.20
2023-05-22T23:16:44.997Z,15.20
2023-05-22T23:19:14.548Z,15.20
2023-05-22T23:21:46.454Z,15.30
2023-05-22T23:24:16.263Z,15.40
2023-05-22T23:26:45.866Z,15.40
2023-05-22T23:29:15.218Z,15.70
2023-05-22T23:31:44.971Z,15.70
2023-05-22T23:34:14.537Z,15.70
2023-05-22T23:36:45.585Z,15.70
2023-05-22T23:39:18.565Z,15.70
2023-05-22T23:41:47.928Z,15.70
2023-05-22T23:44:17.538Z,15.70
